sensor_id;sensor_type;location;lat;lon;timestamp;pressure;altitude;pressure_sealevel;temperature;humidity
50226;BME280;36113;50.742;6.432;2023-06-04T00:02:09;99156.66;;;10.95;51.69
50226;BME280;36113;50.742;6.432;2023-06-04T00:04:35;99164.00;;;10.94;51.79
50226;BME280;36113;50.742;6.432;2023-06-04T00:07:00;99111.41;;;10.68;52.38
50226;BME280;36113;50.742;6.432;2023-06-04T00:09:25;99153.94;;;10.95;52.04
50226;BME280;36113;50.742;6.432;2023-06-04T00:11:51;99148.50;;;10.90;52.40
50226;BME280;36113;50.742;6.432;2023-06-04T00:14:16;99136.44;;;10.75;52.13
50226;BME280;36113;50.742;6.432;2023-06-04T00:16:41;99081.06;;;10.34;52.63
50226;BME280;36113;50.742;6.432;2023-06-04T00:19:08;99121.69;;;10.56;52.70
50226;BME280;36113;50.742;6.432;2023-06-04T00:21:33;99138.28;;;10.60;53.13
50226;BME280;36113;50.742;6.432;2023-06-04T00:24:00;99136.34;;;10.55;53.45
50226;BME280;36113;50.742;6.432;2023-06-04T00:26:25;99098.38;;;10.28;53.81
50226;BME280;36113;50.742;6.432;2023-06-04T00:28:50;99124.00;;;10.37;53.72
50226;BME280;36113;50.742;6.432;2023-06-04T00:31:16;99140.16;;;10.54;53.90
50226;BME280;36113;50.742;6.432;2023-06-04T00:33:41;99140.16;;;10.54;53.64
50226;BME280;36113;50.742;6.432;2023-06-04T00:36:07;99145.53;;;10.49;54.28
50226;BME280;36113;50.742;6.432;2023-06-04T00:38:32;99106.47;;;10.23;54.39
50226;BME280;36113;50.742;6.432;2023-06-04T00:40:58;99134.63;;;10.39;54.87
50226;BME280;36113;50.742;6.432;2023-06-04T00:43:23;99108.06;;;10.13;54.89
50226;BME280;36113;50.742;6.432;2023-06-04T00:45:52;99137.22;;;10.28;54.37
50226;BME280;36113;50.742;6.432;2023-06-04T00:48:17;99143.50;;;10.29;54.57
50226;BME280;36113;50.742;6.432;2023-06-04T00:50:42;99141.59;;;10.29;53.85
50226;BME280;36113;50.742;6.432;2023-06-04T00:53:09;99137.56;;;10.32;53.97
50226;BME280;36113;50.742;6.432;2023-06-04T00:55:36;99112.38;;;10.09;54.31
50226;BME280;36113;50.742;6.432;2023-06-04T00:58:01;99137.22;;;10.23;54.21
50226;BME280;36113;50.742;6.432;2023-06-04T01:00:29;99133.41;;;10.24;54.18
50226;BME280;36113;50.742;6.432;2023-06-04T01:02:55;99099.78;;;9.98;54.49
50226;BME280;36113;50.742;6.432;2023-06-04T01:05:29;99123.53;;;10.13;54.73
50226;BME280;36113;50.742;6.432;2023-06-04T01:07:59;99121.38;;;10.15;54.63
50226;BME280;36113;50.742;6.432;2023-06-04T01:10:25;99119.75;;;10.14;54.45
50226;BME280;36113;50.742;6.432;2023-06-04T01:12:51;99078.50;;;9.80;54.10
50226;BME280;36113;50.742;6.432;2023-06-04T01:15:16;99129.72;;;10.03;54.45
50226;BME280;36113;50.742;6.432;2023-06-04T01:17:43;99132.16;;;10.05;54.59
50226;BME280;36113;50.742;6.432;2023-06-04T01:25:26;99139.22;;;10.01;54.71
50226;BME280;36113;50.742;6.432;2023-06-04T01:27:55;99137.00;;;9.98;55.15
50226;BME280;36113;50.742;6.432;2023-06-04T01:30:26;99135.38;;;9.97;55.34
50226;BME280;36113;50.742;6.432;2023-06-04T01:32:56;99123.75;;;9.74;55.62
50226;BME280;36113;50.742;6.432;2023-06-04T01:35:22;99137.13;;;9.81;55.73
50226;BME280;36113;50.742;6.432;2023-06-04T01:37:48;99118.56;;;9.67;55.37
50226;BME280;36113;50.742;6.432;2023-06-04T01:40:14;99073.94;;;9.53;54.81
50226;BME280;36113;50.742;6.432;2023-06-04T01:42:41;99115.03;;;9.67;55.44
50226;BME280;36113;50.742;6.432;2023-06-04T01:45:06;99135.72;;;9.73;55.50
50226;BME280;36113;50.742;6.432;2023-06-04T01:47:32;99055.78;;;9.26;55.69
50226;BME280;36113;50.742;6.432;2023-06-04T01:49:58;99118.75;;;9.61;56.42
50226;BME280;36113;50.742;6.432;2023-06-04T01:52:24;99064.22;;;9.30;56.35
50226;BME280;36113;50.742;6.432;2023-06-04T01:54:49;99120.97;;;9.64;56.23
50226;BME280;36113;50.742;6.432;2023-06-04T01:57:21;99132.34;;;9.61;56.19
50226;BME280;36113;50.742;6.432;2023-06-04T01:59:47;99135.63;;;9.63;56.79
50226;BME280;36113;50.742;6.432;2023-06-04T02:02:13;99091.09;;;9.31;56.74
50226;BME280;36113;50.742;6.432;2023-06-04T02:04:38;99108.50;;;9.36;56.58
50226;BME280;36113;50.742;6.432;2023-06-04T02:07:09;99113.59;;;9.32;56.81
50226;BME280;36113;50.742;6.432;2023-06-04T02:09:35;99126.72;;;9.40;56.66
50226;BME280;36113;50.742;6.432;2023-06-04T02:12:01;99117.16;;;9.32;57.05
50226;BME280;36113;50.742;6.432;2023-06-04T02:14:26;99123.97;;;9.35;57.28
50226;BME280;36113;50.742;6.432;2023-06-04T02:16:51;99085.22;;;9.13;57.08
50226;BME280;36113;50.742;6.432;2023-06-04T02:19:23;99090.06;;;9.10;57.22
50226;BME280;36113;50.742;6.432;2023-06-04T02:21:48;99126.22;;;9.43;56.94
50226;BME280;36113;50.742;6.432;2023-06-04T02:24:13;99125.84;;;9.35;57.41
50226;BME280;36113;50.742;6.432;2023-06-04T02:26:39;99083.38;;;8.96;57.36
50226;BME280;36113;50.742;6.432;2023-06-04T02:29:04;99121.09;;;9.20;57.65
50226;BME280;36113;50.742;6.432;2023-06-04T02:31:30;99143.16;;;9.28;57.85
50226;BME280;36113;50.742;6.432;2023-06-04T02:33:56;99127.06;;;9.22;57.71
50226;BME280;36113;50.742;6.432;2023-06-04T02:36:21;99143.03;;;9.18;57.92
50226;BME280;36113;50.742;6.432;2023-06-04T02:38:46;99138.38;;;9.14;58.15
50226;BME280;36113;50.742;6.432;2023-06-04T02:41:12;99108.38;;;8.98;57.96
50226;BME280;36113;50.742;6.432;2023-06-04T02:43:37;99139.50;;;9.18;57.76
50226;BME280;36113;50.742;6.432;2023-06-04T02:46:02;99150.69;;;9.21;57.69
50226;BME280;36113;50.742;6.432;2023-06-04T02:48:28;99107.75;;;8.91;58.25
50226;BME280;36113;50.742;6.432;2023-06-04T02:50:53;99150.22;;;9.07;58.20
50226;BME280;36113;50.742;6.432;2023-06-04T02:53:18;99103.72;;;8.72;58.68
50226;BME280;36113;50.742;6.432;2023-06-04T02:55:43;99102.50;;;8.62;59.56
50226;BME280;36113;50.742;6.432;2023-06-04T02:58:09;99136.84;;;8.79;59.75
50226;BME280;36113;50.742;6.432;2023-06-04T03:00:34;99143.31;;;8.73;60.08
50226;BME280;36113;50.742;6.432;2023-06-04T03:03:00;99157.53;;;8.85;59.91
50226;BME280;36113;50.742;6.432;2023-06-04T03:05:26;99142.41;;;8.89;59.50
50226;BME280;36113;50.742;6.432;2023-06-04T03:07:52;99100.94;;;8.66;59.51
50226;BME280;36113;50.742;6.432;2023-06-04T03:10:17;99145.69;;;8.91;59.51
50226;BME280;36113;50.742;6.432;2023-06-04T03:12:43;99147.91;;;8.94;59.08
50226;BME280;36113;50.742;6.432;2023-06-04T03:15:09;99130.13;;;8.81;59.07
50226;BME280;36113;50.742;6.432;2023-06-04T03:17:35;99089.66;;;8.53;59.18
50226;BME280;36113;50.742;6.432;2023-06-04T03:20:00;99154.06;;;8.89;59.36
50226;BME280;36113;50.742;6.432;2023-06-04T03:22:25;99133.66;;;8.82;59.67
50226;BME280;36113;50.742;6.432;2023-06-04T03:24:51;99142.09;;;8.85;59.62
50226;BME280;36113;50.742;6.432;2023-06-04T03:27:17;99152.31;;;8.78;60.02
50226;BME280;36113;50.742;6.432;2023-06-04T03:29:43;99138.13;;;8.71;59.72
50226;BME280;36113;50.742;6.432;2023-06-04T03:32:08;99117.06;;;8.56;59.77
50226;BME280;36113;50.742;6.432;2023-06-04T03:34:33;99108.34;;;8.54;59.10
50226;BME280;36113;50.742;6.432;2023-06-04T03:36:59;99107.31;;;8.55;59.07
50226;BME280;36113;50.742;6.432;2023-06-04T03:39:25;99137.31;;;8.70;59.68
50226;BME280;36113;50.742;6.432;2023-06-04T03:41:50;99163.47;;;8.82;60.19
50226;BME280;36113;50.742;6.432;2023-06-04T03:44:16;99133.53;;;8.72;59.95
50226;BME280;36113;50.742;6.432;2023-06-04T03:46:42;99149.75;;;8.88;59.83
50226;BME280;36113;50.742;6.432;2023-06-04T03:49:12;99128.47;;;8.80;59.33
50226;BME280;36113;50.742;6.432;2023-06-04T03:51:38;99132.09;;;8.86;59.21
50226;BME280;36113;50.742;6.432;2023-06-04T03:54:04;99148.53;;;9.01;58.73
50226;BME280;36113;50.742;6.432;2023-06-04T03:56:29;99152.06;;;9.02;58.69
50226;BME280;36113;50.742;6.432;2023-06-04T03:58:54;99103.50;;;8.78;58.72
50226;BME280;36113;50.742;6.432;2023-06-04T04:01:21;99142.34;;;9.06;58.94
50226;BME280;36113;50.742;6.432;2023-06-04T04:03:46;99143.19;;;9.06;58.85
50226;BME280;36113;50.742;6.432;2023-06-04T04:06:15;99108.88;;;8.95;59.18
50226;BME280;36113;50.742;6.432;2023-06-04T04:08:41;99149.03;;;9.20;59.44
50226;BME280;36113;50.742;6.432;2023-06-04T04:11:13;99131.31;;;9.13;60.03
50226;BME280;36113;50.742;6.432;2023-06-04T04:13:39;99113.03;;;9.03;59.99
50226;BME280;36113;50.742;6.432;2023-06-04T04:16:04;99140.41;;;9.23;60.22
50226;BME280;36113;50.742;6.432;2023-06-04T04:18:34;99080.06;;;8.89;60.20
50226;BME280;36113;50.742;6.432;2023-06-04T04:21:00;99140.44;;;9.28;60.25
50226;BME280;36113;50.742;6.432;2023-06-04T04:23:26;99138.91;;;9.38;60.37
50226;BME280;36113;50.742;6.432;2023-06-04T04:25:52;99139.03;;;9.48;60.08
50226;BME280;36113;50.742;6.432;2023-06-04T04:28:18;99153.03;;;9.67;59.54
50226;BME280;36113;50.742;6.432;2023-06-04T04:30:44;99151.78;;;9.80;58.96
50226;BME280;36113;50.742;6.432;2023-06-04T04:33:10;99130.84;;;9.75;58.99
50226;BME280;36113;50.742;6.432;2023-06-04T04:35:36;99065.97;;;9.41;58.38
50226;BME280;36113;50.742;6.432;2023-06-04T04:38:02;99139.72;;;9.98;58.72
50226;BME280;36113;50.742;6.432;2023-06-04T04:40:30;99145.25;;;10.08;58.53
50226;BME280;36113;50.742;6.432;2023-06-04T04:42:56;99151.59;;;10.24;58.04
50226;BME280;36113;50.742;6.432;2023-06-04T04:45:22;99154.97;;;10.36;57.19
50226;BME280;36113;50.742;6.432;2023-06-04T04:47:47;99113.56;;;10.24;56.21
50226;BME280;36113;50.742;6.432;2023-06-04T04:50:13;99118.91;;;10.46;55.03
50226;BME280;36113;50.742;6.432;2023-06-04T04:52:38;99168.03;;;10.82;53.55
50226;BME280;36113;50.742;6.432;2023-06-04T04:55:04;99155.84;;;10.94;53.17
50226;BME280;36113;50.742;6.432;2023-06-04T04:57:29;99151.84;;;11.12;52.94
50226;BME280;36113;50.742;6.432;2023-06-04T04:59:55;99057.56;;;10.70;52.00
50226;BME280;36113;50.742;6.432;2023-06-04T05:02:20;99153.84;;;11.48;51.55
50226;BME280;36113;50.742;6.432;2023-06-04T05:04:45;99130.72;;;11.50;50.79
50226;BME280;36113;50.742;6.432;2023-06-04T05:07:11;99147.63;;;11.78;49.40
50226;BME280;36113;50.742;6.432;2023-06-04T05:09:36;99163.75;;;12.05;48.93
50226;BME280;36113;50.742;6.432;2023-06-04T05:12:02;99169.47;;;12.14;48.08
50226;BME280;36113;50.742;6.432;2023-06-04T05:14:28;99157.22;;;12.27;48.41
50226;BME280;36113;50.742;6.432;2023-06-04T05:16:54;99159.63;;;12.43;48.06
50226;BME280;36113;50.742;6.432;2023-06-04T05:19:22;99125.03;;;12.29;47.33
50226;BME280;36113;50.742;6.432;2023-06-04T05:21:48;99157.41;;;12.61;46.62
50226;BME280;36113;50.742;6.432;2023-06-04T05:24:14;99165.06;;;12.54;45.29
50226;BME280;36113;50.742;6.432;2023-06-04T05:26:39;99128.56;;;12.34;45.62
50226;BME280;36113;50.742;6.432;2023-06-04T05:29:05;99132.59;;;12.57;45.13
50226;BME280;36113;50.742;6.432;2023-06-04T05:31:30;99163.97;;;12.50;45.39
50226;BME280;36113;50.742;6.432;2023-06-04T05:33:59;99163.69;;;12.56;45.45
50226;BME280;36113;50.742;6.432;2023-06-04T05:36:27;99124.72;;;12.56;45.14
50226;BME280;36113;50.742;6.432;2023-06-04T05:38:53;99164.03;;;13.15;45.21
50226;BME280;36113;50.742;6.432;2023-06-04T05:41:27;99129.34;;;13.25;45.90
50226;BME280;36113;50.742;6.432;2023-06-04T05:43:53;99163.50;;;13.73;45.66
50226;BME280;36113;50.742;6.432;2023-06-04T05:46:18;99132.97;;;13.60;46.31
50226;BME280;36113;50.742;6.432;2023-06-04T05:48:44;99161.44;;;13.94;46.61
50226;BME280;36113;50.742;6.432;2023-06-04T05:51:10;99162.72;;;14.06;46.46
50226;BME280;36113;50.742;6.432;2023-06-04T05:53:35;99166.78;;;14.09;46.34
50226;BME280;36113;50.742;6.432;2023-06-04T05:56:00;99168.84;;;13.88;45.83
50226;BME280;36113;50.742;6.432;2023-06-04T05:58:26;99139.56;;;13.94;45.32
50226;BME280;36113;50.742;6.432;2023-06-04T06:00:51;99130.13;;;14.10;44.92
50226;BME280;36113;50.742;6.432;2023-06-04T06:03:16;99136.44;;;14.40;44.79
50226;BME280;36113;50.742;6.432;2023-06-04T06:05:43;99190.97;;;14.60;43.92
50226;BME280;36113;50.742;6.432;2023-06-04T06:08:08;99189.19;;;14.75;43.66
50226;BME280;36113;50.742;6.432;2023-06-04T06:10:34;99190.94;;;14.31;44.52
50226;BME280;36113;50.742;6.432;2023-06-04T06:12:59;99184.88;;;14.68;44.72
50226;BME280;36113;50.742;6.432;2023-06-04T06:15:27;99188.97;;;14.95;43.64
50226;BME280;36113;50.742;6.432;2023-06-04T06:17:54;99167.41;;;14.88;43.99
50226;BME280;36113;50.742;6.432;2023-06-04T06:20:19;99161.31;;;14.73;43.20
50226;BME280;36113;50.742;6.432;2023-06-04T06:22:47;99178.72;;;14.53;42.59
50226;BME280;36113;50.742;6.432;2023-06-04T06:25:13;99204.94;;;14.88;42.90
50226;BME280;36113;50.742;6.432;2023-06-04T06:27:41;99192.69;;;14.80;41.92
50226;BME280;36113;50.742;6.432;2023-06-04T06:30:07;99164.25;;;14.76;42.96
50226;BME280;36113;50.742;6.432;2023-06-04T06:32:33;99152.84;;;14.69;42.67
50226;BME280;36113;50.742;6.432;2023-06-04T06:34:59;99209.56;;;14.87;43.35
50226;BME280;36113;50.742;6.432;2023-06-04T06:37:24;99193.72;;;14.84;42.90
50226;BME280;36113;50.742;6.432;2023-06-04T06:39:50;99203.88;;;15.08;42.95
50226;BME280;36113;50.742;6.432;2023-06-04T06:42:15;99169.53;;;14.67;42.30
50226;BME280;36113;50.742;6.432;2023-06-04T06:44:43;99218.56;;;15.17;43.11
50226;BME280;36113;50.742;6.432;2023-06-04T06:47:09;99170.69;;;15.34;41.61
50226;BME280;36113;50.742;6.432;2023-06-04T06:49:35;99203.50;;;15.82;41.19
50226;BME280;36113;50.742;6.432;2023-06-04T06:52:00;99212.34;;;16.11;41.01
50226;BME280;36113;50.742;6.432;2023-06-04T06:54:26;99189.75;;;16.20;40.12
50226;BME280;36113;50.742;6.432;2023-06-04T06:56:51;99182.00;;;16.08;39.00
50226;BME280;36113;50.742;6.432;2023-06-04T06:59:16;99209.47;;;16.22;39.96
50226;BME280;36113;50.742;6.432;2023-06-04T07:01:42;99218.31;;;16.00;39.35
50226;BME280;36113;50.742;6.432;2023-06-04T07:04:07;99174.31;;;15.72;40.16
50226;BME280;36113;50.742;6.432;2023-06-04T07:06:34;99210.47;;;16.12;39.10
50226;BME280;36113;50.742;6.432;2023-06-04T07:09:00;99231.94;;;16.05;39.66
50226;BME280;36113;50.742;6.432;2023-06-04T07:11:26;99184.22;;;15.68;39.79
50226;BME280;36113;50.742;6.432;2023-06-04T07:13:51;99208.09;;;16.05;39.49
50226;BME280;36113;50.742;6.432;2023-06-04T07:16:16;99228.13;;;16.39;39.58
50226;BME280;36113;50.742;6.432;2023-06-04T07:18:43;99199.25;;;16.08;40.18
50226;BME280;36113;50.742;6.432;2023-06-04T07:21:08;99230.56;;;16.07;40.49
50226;BME280;36113;50.742;6.432;2023-06-04T07:23:33;99237.78;;;16.36;40.16
50226;BME280;36113;50.742;6.432;2023-06-04T07:25:59;99228.44;;;16.18;40.75
50226;BME280;36113;50.742;6.432;2023-06-04T07:28:24;99212.97;;;16.27;41.12
50226;BME280;36113;50.742;6.432;2023-06-04T07:30:50;99223.19;;;16.54;39.75
50226;BME280;36113;50.742;6.432;2023-06-04T07:33:15;99205.53;;;16.61;40.33
50226;BME280;36113;50.742;6.432;2023-06-04T07:35:41;99238.47;;;17.07;40.08
50226;BME280;36113;50.742;6.432;2023-06-04T07:38:06;99187.78;;;17.13;39.67
50226;BME280;36113;50.742;6.432;2023-06-04T07:40:31;99225.38;;;17.18;39.15
50226;BME280;36113;50.742;6.432;2023-06-04T07:42:57;99234.00;;;17.25;38.23
50226;BME280;36113;50.742;6.432;2023-06-04T07:45:22;99214.28;;;16.63;40.06
50226;BME280;36113;50.742;6.432;2023-06-04T07:47:47;99191.81;;;16.61;38.34
50226;BME280;36113;50.742;6.432;2023-06-04T07:50:13;99215.25;;;17.00;38.86
50226;BME280;36113;50.742;6.432;2023-06-04T07:52:38;99203.78;;;17.25;39.51
50226;BME280;36113;50.742;6.432;2023-06-04T07:55:04;99237.75;;;17.57;38.75
50226;BME280;36113;50.742;6.432;2023-06-04T07:57:30;99224.97;;;17.75;38.66
50226;BME280;36113;50.742;6.432;2023-06-04T07:59:55;99230.75;;;18.01;39.05
50226;BME280;36113;50.742;6.432;2023-06-04T08:02:22;99180.00;;;17.85;38.35
50226;BME280;36113;50.742;6.432;2023-06-04T08:04:47;99209.13;;;18.08;37.76
50226;BME280;36113;50.742;6.432;2023-06-04T08:07:12;99229.22;;;18.31;38.22
50226;BME280;36113;50.742;6.432;2023-06-04T08:09:38;99228.59;;;18.34;36.82
50226;BME280;36113;50.742;6.432;2023-06-04T08:12:04;99201.94;;;18.21;38.08
50226;BME280;36113;50.742;6.432;2023-06-04T08:14:29;99222.22;;;17.89;34.82
50226;BME280;36113;50.742;6.432;2023-06-04T08:16:55;99201.81;;;17.40;36.92
50226;BME280;36113;50.742;6.432;2023-06-04T08:19:21;99198.13;;;17.72;37.15
50226;BME280;36113;50.742;6.432;2023-06-04T08:21:46;99235.38;;;17.78;37.23
50226;BME280;36113;50.742;6.432;2023-06-04T08:24:12;99194.84;;;17.70;37.12
50226;BME280;36113;50.742;6.432;2023-06-04T08:26:38;99238.06;;;18.42;37.38
50226;BME280;36113;50.742;6.432;2023-06-04T08:29:03;99237.59;;;18.71;36.37
50226;BME280;36113;50.742;6.432;2023-06-04T08:31:29;99238.28;;;18.54;36.76
50226;BME280;36113;50.742;6.432;2023-06-04T08:33:55;99235.41;;;18.14;36.74
50226;BME280;36113;50.742;6.432;2023-06-04T08:36:20;99213.53;;;17.95;36.07
50226;BME280;36113;50.742;6.432;2023-06-04T08:38:45;99240.47;;;18.21;36.73
50226;BME280;36113;50.742;6.432;2023-06-04T08:41:20;99206.50;;;18.03;35.53
50226;BME280;36113;50.742;6.432;2023-06-04T08:43:49;99217.06;;;17.87;35.31
50226;BME280;36113;50.742;6.432;2023-06-04T08:46:17;99231.59;;;17.88;35.93
50226;BME280;36113;50.742;6.432;2023-06-04T08:48:43;99241.84;;;18.32;37.16
50226;BME280;36113;50.742;6.432;2023-06-04T08:51:09;99220.16;;;18.53;36.49
50226;BME280;36113;50.742;6.432;2023-06-04T08:53:36;99233.16;;;18.84;35.75
50226;BME280;36113;50.742;6.432;2023-06-04T08:56:02;99200.38;;;18.51;35.75
50226;BME280;36113;50.742;6.432;2023-06-04T08:58:31;99220.84;;;18.36;36.49
50226;BME280;36113;50.742;6.432;2023-06-04T09:00:57;99236.63;;;18.98;36.53
50226;BME280;36113;50.742;6.432;2023-06-04T09:03:22;99236.88;;;19.28;37.83
50226;BME280;36113;50.742;6.432;2023-06-04T09:05:50;99225.72;;;19.82;37.28
50226;BME280;36113;50.742;6.432;2023-06-04T09:08:17;99222.34;;;19.45;35.45
50226;BME280;36113;50.742;6.432;2023-06-04T09:10:46;99234.88;;;19.51;35.23
50226;BME280;36113;50.742;6.432;2023-06-04T09:13:15;99253.13;;;19.30;33.74
50226;BME280;36113;50.742;6.432;2023-06-04T09:15:41;99216.56;;;19.07;35.03
50226;BME280;36113;50.742;6.432;2023-06-04T09:18:06;99206.47;;;19.42;35.00
50226;BME280;36113;50.742;6.432;2023-06-04T09:20:31;99204.22;;;19.61;36.04
50226;BME280;36113;50.742;6.432;2023-06-04T09:22:58;99246.63;;;19.83;34.09
50226;BME280;36113;50.742;6.432;2023-06-04T09:25:25;99253.22;;;19.64;35.31
50226;BME280;36113;50.742;6.432;2023-06-04T09:27:51;99242.09;;;19.78;35.01
50226;BME280;36113;50.742;6.432;2023-06-04T09:30:17;99251.53;;;19.95;35.91
50226;BME280;36113;50.742;6.432;2023-06-04T09:32:42;99244.31;;;19.68;35.81
50226;BME280;36113;50.742;6.432;2023-06-04T09:35:16;99234.31;;;19.98;35.88
50226;BME280;36113;50.742;6.432;2023-06-04T09:37:42;99170.84;;;19.72;34.86
50226;BME280;36113;50.742;6.432;2023-06-04T09:40:08;99253.31;;;20.52;34.29
50226;BME280;36113;50.742;6.432;2023-06-04T09:42:47;99246.00;;;20.56;34.77
50226;BME280;36113;50.742;6.432;2023-06-04T09:45:29;99243.22;;;20.56;34.59
50226;BME280;36113;50.742;6.432;2023-06-04T09:47:55;99253.34;;;20.08;32.94
50226;BME280;36113;50.742;6.432;2023-06-04T09:50:26;99250.69;;;19.77;34.91
50226;BME280;36113;50.742;6.432;2023-06-04T09:52:52;99246.00;;;20.30;35.17
50226;BME280;36113;50.742;6.432;2023-06-04T09:55:18;99212.56;;;20.40;33.64
50226;BME280;36113;50.742;6.432;2023-06-04T09:57:49;99253.00;;;20.71;32.57
50226;BME280;36113;50.742;6.432;2023-06-04T10:00:21;99260.13;;;20.72;33.07
50226;BME280;36113;50.742;6.432;2023-06-04T10:02:48;99235.13;;;20.51;33.57
50226;BME280;36113;50.742;6.432;2023-06-04T10:05:15;99240.81;;;20.02;33.98
50226;BME280;36113;50.742;6.432;2023-06-04T10:07:45;99223.38;;;19.58;34.76
50226;BME280;36113;50.742;6.432;2023-06-04T10:10:15;99223.13;;;20.20;34.39
50226;BME280;36113;50.742;6.432;2023-06-04T10:12:42;99244.72;;;20.10;32.93
50226;BME280;36113;50.742;6.432;2023-06-04T10:15:12;99231.22;;;19.82;31.79
50226;BME280;36113;50.742;6.432;2023-06-04T10:17:38;99237.41;;;20.14;31.47
50226;BME280;36113;50.742;6.432;2023-06-04T10:20:05;99228.47;;;20.17;31.00
50226;BME280;36113;50.742;6.432;2023-06-04T10:22:33;99250.06;;;20.41;30.14
50226;BME280;36113;50.742;6.432;2023-06-04T10:24:59;99246.78;;;20.82;29.67
50226;BME280;36113;50.742;6.432;2023-06-04T10:27:25;99234.81;;;21.17;29.75
50226;BME280;36113;50.742;6.432;2023-06-04T10:29:51;99192.66;;;20.81;28.48
50226;BME280;36113;50.742;6.432;2023-06-04T10:32:17;99230.41;;;20.69;30.18
50226;BME280;36113;50.742;6.432;2023-06-04T10:34:43;99223.25;;;20.67;29.82
50226;BME280;36113;50.742;6.432;2023-06-04T10:37:21;99174.88;;;20.44;31.09
50226;BME280;36113;50.742;6.432;2023-06-04T10:39:51;99158.78;;;20.63;30.10
50226;BME280;36113;50.742;6.432;2023-06-04T10:42:18;99219.47;;;21.28;29.53
50226;BME280;36113;50.742;6.432;2023-06-04T10:44:51;99220.81;;;21.52;29.29
50226;BME280;36113;50.742;6.432;2023-06-04T10:47:24;99221.06;;;21.67;29.98
50226;BME280;36113;50.742;6.432;2023-06-04T10:49:51;99231.00;;;21.30;28.55
50226;BME280;36113;50.742;6.432;2023-06-04T10:52:17;99143.00;;;20.64;29.37
50226;BME280;36113;50.742;6.432;2023-06-04T10:54:45;99221.06;;;20.99;29.83
50226;BME280;36113;50.742;6.432;2023-06-04T10:57:16;99216.28;;;21.08;29.48
50226;BME280;36113;50.742;6.432;2023-06-04T10:59:57;99220.66;;;21.57;28.69
50226;BME280;36113;50.742;6.432;2023-06-04T11:02:24;99211.44;;;21.44;27.55
50226;BME280;36113;50.742;6.432;2023-06-04T11:05:03;99219.25;;;21.03;28.29
50226;BME280;36113;50.742;6.432;2023-06-04T11:07:51;99225.75;;;21.37;29.44
50226;BME280;36113;50.742;6.432;2023-06-04T11:10:17;99203.72;;;21.79;28.21
50226;BME280;36113;50.742;6.432;2023-06-04T11:12:43;99214.53;;;21.72;27.88
50226;BME280;36113;50.742;6.432;2023-06-04T11:15:09;99214.31;;;21.77;27.58
50226;BME280;36113;50.742;6.432;2023-06-04T11:17:34;99207.44;;;21.83;30.46
50226;BME280;36113;50.742;6.432;2023-06-04T11:20:00;99201.97;;;22.17;28.16
50226;BME280;36113;50.742;6.432;2023-06-04T11:22:25;99204.16;;;22.44;27.71
50226;BME280;36113;50.742;6.432;2023-06-04T11:24:57;99199.72;;;21.38;28.64
50226;BME280;36113;50.742;6.432;2023-06-04T11:27:24;99180.72;;;21.37;29.20
50226;BME280;36113;50.742;6.432;2023-06-04T11:29:51;99188.81;;;21.93;29.22
50226;BME280;36113;50.742;6.432;2023-06-04T11:32:22;99199.06;;;22.34;29.49
50226;BME280;36113;50.742;6.432;2023-06-04T11:34:48;99199.09;;;22.46;28.41
50226;BME280;36113;50.742;6.432;2023-06-04T11:37:13;99186.28;;;22.42;28.11
50226;BME280;36113;50.742;6.432;2023-06-04T11:39:39;99207.38;;;22.13;28.70
50226;BME280;36113;50.742;6.432;2023-06-04T11:42:05;99208.06;;;22.10;28.63
50226;BME280;36113;50.742;6.432;2023-06-04T11:44:32;99202.69;;;22.05;28.48
50226;BME280;36113;50.742;6.432;2023-06-04T11:46:58;99201.22;;;22.28;27.74
50226;BME280;36113;50.742;6.432;2023-06-04T11:49:24;99198.97;;;22.76;28.26
50226;BME280;36113;50.742;6.432;2023-06-04T11:51:51;99193.03;;;22.65;28.12
50226;BME280;36113;50.742;6.432;2023-06-04T11:54:19;99203.31;;;23.23;28.62
50226;BME280;36113;50.742;6.432;2023-06-04T11:56:44;99178.69;;;23.33;28.11
50226;BME280;36113;50.742;6.432;2023-06-04T11:59:15;99192.97;;;23.72;28.53
50226;BME280;36113;50.742;6.432;2023-06-04T12:01:46;99168.75;;;23.45;26.66
50226;BME280;36113;50.742;6.432;2023-06-04T12:04:18;99194.72;;;23.89;28.26
50226;BME280;36113;50.742;6.432;2023-06-04T12:06:53;99191.88;;;24.02;27.42
50226;BME280;36113;50.742;6.432;2023-06-04T12:09:20;99187.25;;;24.06;24.99
50226;BME280;36113;50.742;6.432;2023-06-04T12:11:46;99168.53;;;23.90;25.85
50226;BME280;36113;50.742;6.432;2023-06-04T12:14:16;99188.50;;;23.80;24.13
50226;BME280;36113;50.742;6.432;2023-06-04T12:16:54;99144.72;;;22.42;25.18
50226;BME280;36113;50.742;6.432;2023-06-04T12:19:20;99167.00;;;22.12;26.43
50226;BME280;36113;50.742;6.432;2023-06-04T12:21:45;99180.97;;;22.37;26.44
50226;BME280;36113;50.742;6.432;2023-06-04T12:24:11;99165.25;;;22.99;26.93
50226;BME280;36113;50.742;6.432;2023-06-04T12:26:38;99173.25;;;23.37;24.56
50226;BME280;36113;50.742;6.432;2023-06-04T12:29:17;99139.03;;;23.33;26.05
50226;BME280;36113;50.742;6.432;2023-06-04T12:31:43;99135.78;;;23.43;24.83
50226;BME280;36113;50.742;6.432;2023-06-04T12:34:11;99179.25;;;23.76;24.85
50226;BME280;36113;50.742;6.432;2023-06-04T12:36:39;99171.81;;;23.68;23.29
50226;BME280;36113;50.742;6.432;2023-06-04T12:39:05;99167.09;;;23.81;24.75
50226;BME280;36113;50.742;6.432;2023-06-04T12:41:31;99178.06;;;23.77;24.23
50226;BME280;36113;50.742;6.432;2023-06-04T12:43:58;99167.81;;;24.06;24.32
50226;BME280;36113;50.742;6.432;2023-06-04T12:46:24;99159.00;;;24.04;24.47
50226;BME280;36113;50.742;6.432;2023-06-04T12:48:50;99179.69;;;24.19;24.50
50226;BME280;36113;50.742;6.432;2023-06-04T12:51:16;99138.81;;;23.13;25.28
50226;BME280;36113;50.742;6.432;2023-06-04T12:53:42;99171.13;;;22.72;24.18
50226;BME280;36113;50.742;6.432;2023-06-04T12:56:08;99145.09;;;22.52;25.09
50226;BME280;36113;50.742;6.432;2023-06-04T12:58:34;99181.66;;;22.91;25.08
50226;BME280;36113;50.742;6.432;2023-06-04T13:01:00;99173.88;;;22.72;24.63
50226;BME280;36113;50.742;6.432;2023-06-04T13:03:25;99169.75;;;22.79;24.57
50226;BME280;36113;50.742;6.432;2023-06-04T13:05:51;99176.44;;;22.78;24.10